Time;durP1;ratioP1;P1;durP2;ratioP2;P2;SDS_P1;SDS_P2;PMS_P1;PMS_P2;Temp;Humidity;BMP_temperature;BMP_pressure;BME280_temperature;BME280_humidity;BME280_pressure;Samples;Min_cycle;Max_cycle;Signal;HPM_P1;HPM_P2
2022/01/19 00:01:16;;;;;;;78.32;26.35;;;4.70;99.90;;;;;;5035714;28;20025;-67
2022/01/19 00:03:41;;;;;;;82.78;30.63;;;4.70;99.90;;;;;;5035002;28;20029;-67
2022/01/19 00:06:07;;;;;;;87.88;30.00;;;4.70;99.90;;;;;;5034286;28;20393;-68
2022/01/19 00:08:33;;;;;;;68.53;26.05;;;4.70;99.90;;;;;;5035258;28;20029;-68
2022/01/19 00:10:58;;;;;;;81.25;27.15;;;4.70;99.90;;;;;;5035214;28;20473;-68
2022/01/19 00:13:24;;;;;;;80.45;31.95;;;4.80;99.90;;;;;;5035111;28;20029;-68
2022/01/19 00:15:51;;;;;;;80.05;28.55;;;4.80;99.90;;;;;;5034835;28;20080;-68
2022/01/19 00:18:18;;;;;;;91.88;29.63;;;4.80;99.90;;;;;;5034751;28;20086;-66
2022/01/19 00:20:44;;;;;;;88.93;31.70;;;4.80;99.90;;;;;;5034801;28;20089;-67
2022/01/19 00:23:11;;;;;;;77.50;30.20;;;4.80;99.90;;;;;;5034808;28;20484;-67
2022/01/19 00:25:37;;;;;;;60.50;26.90;;;4.80;99.90;;;;;;5034630;28;20029;-67
2022/01/19 00:28:03;;;;;;;76.43;26.40;;;4.90;99.90;;;;;;5034910;28;20025;-67
2022/01/19 00:30:29;;;;;;;78.88;28.02;;;4.80;99.90;;;;;;5034868;28;20036;-66
2022/01/19 00:32:55;;;;;;;76.32;28.63;;;4.80;99.90;;;;;;5034539;28;20092;-66
2022/01/19 00:35:20;;;;;;;91.68;30.17;;;4.90;99.90;;;;;;5034670;28;20029;-67
2022/01/19 00:37:46;;;;;;;80.82;34.55;;;4.90;99.90;;;;;;5034428;28;20105;-66
2022/01/19 00:40:14;;;;;;;83.45;31.15;;;4.90;99.90;;;;;;5034333;28;20448;-66
2022/01/19 00:42:41;;;;;;;89.10;35.10;;;4.80;99.90;;;;;;5034352;28;20029;-66
2022/01/19 00:45:07;;;;;;;99.75;35.28;;;4.80;99.90;;;;;;5034171;28;20037;-67
2022/01/19 00:47:33;;;;;;;99.45;37.55;;;4.80;99.90;;;;;;5034291;28;20439;-67
2022/01/19 00:49:58;;;;;;;92.65;37.95;;;4.70;99.90;;;;;;5034366;28;20090;-68
2022/01/19 00:52:24;;;;;;;94.30;39.90;;;4.70;99.90;;;;;;5034158;28;20025;-68
2022/01/19 00:54:49;;;;;;;88.30;36.47;;;4.60;99.90;;;;;;5034307;28;20393;-68
2022/01/19 00:57:15;;;;;;;90.32;36.63;;;4.70;99.90;;;;;;5034051;28;20519;-68
2022/01/19 00:59:41;;;;;;;93.53;39.05;;;4.60;99.90;;;;;;5033962;28;20484;-68
2022/01/19 01:02:07;;;;;;;100.03;37.80;;;4.60;99.90;;;;;;5033986;28;20025;-68
2022/01/19 01:04:32;;;;;;;87.78;38.45;;;4.60;99.90;;;;;;5033933;28;20013;-67
2022/01/19 01:06:59;;;;;;;110.72;38.42;;;4.60;99.90;;;;;;5033850;28;20068;-67
2022/01/19 01:09:25;;;;;;;96.30;38.60;;;4.50;99.90;;;;;;5034388;28;20030;-67
2022/01/19 01:18:18;;;;;;;113.35;41.83;;;4.40;99.90;;;;;;5033775;28;20047;-67
2022/01/19 01:20:04;;;;;;;94.00;40.72;;;4.40;99.90;;;;;;5033440;28;20057;-67
2022/01/19 01:22:30;;;;;;;105.65;41.28;;;4.30;99.90;;;;;;5034000;28;20388;-67
2022/01/19 01:24:55;;;;;;;95.72;39.53;;;4.40;99.90;;;;;;5033611;28;20113;-66
2022/01/19 01:27:21;;;;;;;104.80;44.67;;;4.30;99.90;;;;;;5033906;28;20067;-67
2022/01/19 01:29:47;;;;;;;103.22;42.92;;;4.30;99.90;;;;;;5033865;28;20021;-66
2022/01/19 01:32:12;;;;;;;108.50;43.50;;;4.30;99.90;;;;;;5033778;28;20105;-67
2022/01/19 01:34:38;;;;;;;121.80;45.08;;;4.30;99.90;;;;;;5033634;28;20438;-68
2022/01/19 01:37:03;;;;;;;103.10;39.67;;;4.20;99.90;;;;;;5033374;28;20029;-68
2022/01/19 01:39:29;;;;;;;90.70;40.35;;;4.20;99.90;;;;;;5033357;28;20021;-68
2022/01/19 01:41:55;;;;;;;93.30;42.13;;;4.30;99.90;;;;;;5033945;28;20025;-68
2022/01/19 01:44:21;;;;;;;103.70;42.67;;;4.20;99.90;;;;;;5080854;22;20045;-70
2022/01/19 01:46:54;;;;;;;138.32;47.30;;;4.20;99.90;;;;;;5053259;28;20025;-70
2022/01/19 01:49:43;;;;;;;119.57;50.90;;;4.20;99.90;;;;;;5053824;28;20380;-70
2022/01/19 01:54:50;;;;;;;132.88;47.55;;;4.30;99.90;;;;;;5053723;28;20032;-70
2022/01/19 01:57:16;;;;;;;142.25;56.33;;;4.20;99.90;;;;;;5053420;28;20029;-70
2022/01/19 01:59:41;;;;;;;151.48;57.88;;;4.20;99.90;;;;;;5053429;28;20524;-70
2022/01/19 02:02:07;;;;;;;133.77;53.35;;;4.20;99.90;;;;;;5053651;28;20107;-70
2022/01/19 02:04:34;;;;;;;141.13;51.60;;;4.20;99.90;;;;;;5053036;28;20017;-70
2022/01/19 02:07:27;;;;;;;133.55;53.40;;;4.20;99.90;;;;;;5053071;28;20334;-70
2022/01/19 02:09:50;;;;;;;141.27;55.40;;;4.10;99.90;;;;;;5052908;28;20116;-70
2022/01/19 02:21:45;;;;;;;152.02;57.67;;;4.20;99.90;;;;;;4981884;28;20502;-70
2022/01/19 02:23:43;;;;;;;157.32;55.42;;;4.20;99.90;;;;;;5035354;28;20059;-70
2022/01/19 02:26:15;;;;;;;146.35;54.85;;;4.20;99.90;;;;;;5053147;28;20025;-70
2022/01/19 02:29:07;;;;;;;158.95;55.95;;;4.10;99.90;;;;;;5054099;28;20032;-70
2022/01/19 02:42:51;;;;;;;162.07;59.00;;;4.10;99.90;;;;;;5056862;28;20036;-70
2022/01/19 02:50:27;;;;;;;144.07;55.72;;;4.10;99.90;;;;;;5056987;28;20040;-70
2022/01/19 02:52:52;;;;;;;143.63;58.42;;;4.00;99.90;;;;;;5056303;28;20031;-70
2022/01/19 02:55:18;;;;;;;162.48;63.88;;;4.00;99.90;;;;;;5056231;28;20021;-70
2022/01/19 02:57:46;;;;;;;166.18;60.42;;;4.00;99.90;;;;;;5056517;28;20386;-70
2022/01/19 03:11:08;;;;;;;131.48;52.65;;;3.80;99.90;;;;;;5056633;28;20406;-70
2022/01/19 03:13:34;;;;;;;138.80;56.40;;;3.80;99.90;;;;;;5055866;28;20033;-70
2022/01/19 03:16:00;;;;;;;158.02;60.80;;;3.80;99.90;;;;;;5056160;28;20040;-70
2022/01/19 03:18:25;;;;;;;142.50;57.88;;;3.80;99.90;;;;;;5056044;28;20036;-70
2022/01/19 03:20:51;;;;;;;161.25;58.55;;;3.70;99.90;;;;;;5055812;28;20028;-70
2022/01/19 03:23:20;;;;;;;146.10;61.22;;;3.70;99.90;;;;;;5055779;28;20025;-70
2022/01/19 03:25:49;;;;;;;144.80;59.70;;;3.70;99.90;;;;;;5055650;28;20017;-70
2022/01/19 03:28:15;;;;;;;180.20;66.18;;;3.70;99.90;;;;;;5055968;28;20021;-70
2022/01/19 03:30:43;;;;;;;152.10;58.35;;;3.70;99.90;;;;;;5056005;28;20028;-70
2022/01/19 03:33:09;;;;;;;140.02;54.58;;;3.60;99.90;;;;;;5055508;28;20025;-70
2022/01/19 03:35:35;;;;;;;141.40;54.75;;;3.60;99.90;;;;;;5055446;28;20017;-70
2022/01/19 03:38:00;;;;;;;133.90;56.33;;;3.60;99.90;;;;;;5055492;28;20072;-70
2022/01/19 03:40:27;;;;;;;150.25;55.55;;;3.50;99.90;;;;;;5054786;28;20028;-70
2022/01/19 03:42:52;;;;;;;149.35;61.78;;;3.60;99.90;;;;;;5055409;28;20028;-70
2022/01/19 03:45:19;;;;;;;129.55;54.40;;;3.60;99.90;;;;;;5055266;28;20033;-70
2022/01/19 03:47:51;;;;;;;146.77;58.42;;;3.60;99.90;;;;;;5055306;28;20017;-70
2022/01/19 03:50:17;;;;;;;141.43;54.10;;;3.70;99.90;;;;;;5055316;28;20104;-70
2022/01/19 03:52:42;;;;;;;141.65;55.50;;;3.60;99.90;;;;;;5055443;28;20064;-70
2022/01/19 03:55:08;;;;;;;142.07;58.20;;;3.60;99.90;;;;;;5055152;28;20029;-70
2022/01/19 03:57:34;;;;;;;137.32;58.53;;;3.60;99.90;;;;;;5055099;28;20032;-70
2022/01/19 04:00:00;;;;;;;146.98;61.83;;;3.60;99.90;;;;;;5055056;28;20507;-70
2022/01/19 04:02:26;;;;;;;157.20;57.53;;;3.60;99.90;;;;;;5055317;28;20384;-70
2022/01/19 04:05:02;;;;;;;126.22;56.88;;;3.60;99.90;;;;;;5055094;28;20021;-70
2022/01/19 04:07:28;;;;;;;146.07;58.55;;;3.60;99.90;;;;;;5055548;28;20096;-70
2022/01/19 04:09:53;;;;;;;149.93;60.15;;;3.60;99.90;;;;;;5054901;28;20049;-70
2022/01/19 04:12:30;;;;;;;151.82;59.53;;;3.60;99.90;;;;;;5055111;28;20064;-70
2022/01/19 04:14:56;;;;;;;150.48;61.35;;;3.60;99.90;;;;;;5055036;28;20029;-70
2022/01/19 04:17:22;;;;;;;147.85;59.35;;;3.60;99.90;;;;;;5055569;28;20059;-70
2022/01/19 04:19:48;;;;;;;142.07;58.90;;;3.60;99.90;;;;;;5054630;28;20023;-70
2022/01/19 04:22:18;;;;;;;144.30;58.83;;;3.60;99.90;;;;;;5054684;28;20119;-70
2022/01/19 04:24:44;;;;;;;133.88;60.30;;;3.60;99.90;;;;;;5054528;28;20440;-70
2022/01/19 04:29:56;;;;;;;150.38;61.80;;;3.60;99.90;;;;;;5054515;28;20407;-70
2022/01/19 04:32:30;;;;;;;137.55;60.83;;;3.60;99.90;;;;;;5055108;28;20354;-70
2022/01/19 04:34:56;;;;;;;138.88;62.22;;;3.60;99.90;;;;;;5054670;28;20025;-70
2022/01/19 04:37:33;;;;;;;153.95;62.45;;;3.60;99.90;;;;;;5054369;28;20393;-70
2022/01/19 04:48:28;;;;;;;;;;;3.60;99.90;;;;;;5054934;28;20108;-70
2022/01/19 05:02:10;;;;;;;138.38;58.30;;;3.70;99.90;;;;;;5054166;28;19911;-70
2022/01/19 05:07:35;;;;;;;146.15;60.58;;;3.70;99.90;;;;;;5022882;28;20040;-70
2022/01/19 05:13:23;;;;;;;;;;;3.70;99.90;;;;;;5054811;28;20035;-70
2022/01/19 05:15:30;;;;;;;;;;;3.70;99.90;;;;;;5054012;28;20039;-70
2022/01/19 05:17:56;;;;;;;139.95;61.42;;;3.80;99.90;;;;;;5054178;28;19905;-70
2022/01/19 05:20:21;;;;;;;121.63;56.17;;;3.80;99.90;;;;;;5053524;28;20029;-70
2022/01/19 05:22:47;;;;;;;131.35;57.22;;;3.80;99.90;;;;;;5053867;28;20032;-70
2022/01/19 05:25:12;;;;;;;129.55;54.97;;;3.70;99.90;;;;;;5053474;28;20029;-70
2022/01/19 05:27:38;;;;;;;138.05;59.67;;;3.80;99.90;;;;;;5053498;28;20029;-70
2022/01/19 05:30:04;;;;;;;123.45;56.42;;;3.80;99.90;;;;;;5053495;28;20036;-70
2022/01/19 05:32:30;;;;;;;123.43;57.92;;;3.80;99.90;;;;;;5053381;28;20068;-70
2022/01/19 05:34:55;;;;;;;128.02;56.05;;;3.90;99.90;;;;;;5053489;28;20056;-70
2022/01/19 05:37:22;;;;;;;124.80;53.83;;;3.90;99.90;;;;;;5053628;28;20045;-70
2022/01/19 05:39:48;;;;;;;129.57;54.33;;;3.90;99.90;;;;;;5053310;28;20109;-70
2022/01/19 05:42:16;;;;;;;124.20;56.70;;;3.90;99.90;;;;;;5053321;28;20048;-70
2022/01/19 05:44:46;;;;;;;125.97;56.90;;;3.90;99.90;;;;;;5053489;28;20113;-70
2022/01/19 05:47:13;;;;;;;126.55;53.92;;;3.90;99.90;;;;;;5053169;28;20100;-70
2022/01/19 05:49:39;;;;;;;131.20;55.50;;;3.90;99.90;;;;;;5053234;28;20051;-70
2022/01/19 05:52:06;;;;;;;125.82;54.28;;;3.90;99.90;;;;;;5053224;28;20059;-70
2022/01/19 05:54:32;;;;;;;116.20;55.97;;;3.90;99.90;;;;;;5053090;28;20082;-70
2022/01/19 05:56:58;;;;;;;103.63;52.50;;;3.90;99.90;;;;;;5053191;28;20025;-70
2022/01/19 05:59:24;;;;;;;133.50;60.60;;;3.90;99.90;;;;;;5053072;28;20095;-70
2022/01/19 06:01:50;;;;;;;104.53;54.60;;;3.90;99.90;;;;;;5053153;28;20029;-70
2022/01/19 06:04:15;;;;;;;119.30;56.70;;;3.90;99.90;;;;;;5055065;28;20553;-70
2022/01/19 06:06:41;;;;;;;125.95;57.83;;;3.80;99.90;;;;;;5057237;28;20024;-70
2022/01/19 06:09:22;;;;;;;125.68;57.33;;;3.90;99.90;;;;;;5057429;28;20025;-70
2022/01/19 06:11:48;;;;;;;126.82;57.45;;;3.90;99.90;;;;;;5057455;28;20025;-70
2022/01/19 06:14:14;;;;;;;125.10;57.55;;;3.80;99.90;;;;;;5057049;28;20106;-70
2022/01/19 06:16:41;;;;;;;134.00;58.28;;;3.80;99.90;;;;;;5057030;28;20076;-70
2022/01/19 06:19:06;;;;;;;127.72;51.97;;;3.90;99.90;;;;;;5056979;28;20487;-70
2022/01/19 06:21:32;;;;;;;131.75;53.90;;;3.80;99.90;;;;;;5057245;28;20083;-70
2022/01/19 06:23:57;;;;;;;127.45;51.33;;;3.80;99.90;;;;;;5056835;28;20029;-70
2022/01/19 06:26:23;;;;;;;136.98;55.63;;;3.80;99.90;;;;;;5056845;28;20495;-70
2022/01/19 06:28:49;;;;;;;127.43;49.63;;;3.80;99.90;;;;;;5056858;28;20044;-70
2022/01/19 06:31:14;;;;;;;140.95;51.78;;;3.80;99.90;;;;;;5056680;28;20036;-70
2022/01/19 06:33:40;;;;;;;104.68;43.45;;;3.80;99.90;;;;;;5056634;28;20043;-70
2022/01/19 06:36:05;;;;;;;106.28;44.38;;;3.70;99.90;;;;;;5056852;28;20033;-70
2022/01/19 06:38:31;;;;;;;108.68;44.50;;;3.80;99.90;;;;;;5057074;28;20029;-70
2022/01/19 06:40:57;;;;;;;122.78;46.08;;;3.80;99.90;;;;;;5056612;28;20056;-70
2022/01/19 06:43:22;;;;;;;120.03;44.47;;;3.80;99.90;;;;;;5056547;28;20049;-70
2022/01/19 06:45:48;;;;;;;128.98;47.38;;;3.70;99.90;;;;;;5056415;28;20378;-70
2022/01/19 06:48:14;;;;;;;134.63;49.97;;;3.80;99.90;;;;;;5038602;28;20491;-70
2022/01/19 06:50:39;;;;;;;119.70;45.95;;;3.80;99.90;;;;;;5056411;28;20025;-70
2022/01/19 06:53:05;;;;;;;115.60;42.63;;;3.80;99.90;;;;;;5056415;28;20393;-70
2022/01/19 06:55:31;;;;;;;132.15;46.75;;;3.80;99.90;;;;;;5056296;28;20036;-70
2022/01/19 06:57:57;;;;;;;142.18;47.55;;;3.80;99.90;;;;;;5056287;28;20432;-70
2022/01/19 07:00:22;;;;;;;140.27;48.83;;;3.80;99.90;;;;;;5056159;28;20037;-70
2022/01/19 07:02:48;;;;;;;146.43;51.00;;;3.80;99.90;;;;;;5056213;28;20492;-70
2022/01/19 07:05:13;;;;;;;119.38;46.33;;;3.80;99.90;;;;;;5056104;28;20032;-70
2022/01/19 07:07:40;;;;;;;122.65;44.38;;;3.80;99.90;;;;;;5056082;28;20021;-70
2022/01/19 07:10:07;;;;;;;122.50;43.90;;;3.80;99.90;;;;;;5056014;28;20029;-70
2022/01/19 07:12:33;;;;;;;125.57;44.47;;;3.80;99.90;;;;;;5056002;28;20029;-70
2022/01/19 07:14:59;;;;;;;121.45;44.28;;;3.80;99.90;;;;;;5055730;28;20050;-70
2022/01/19 07:17:24;;;;;;;111.53;43.85;;;3.80;99.90;;;;;;5056159;28;20421;-70
2022/01/19 07:19:50;;;;;;;114.32;42.50;;;3.80;99.90;;;;;;5056026;28;20025;-70
2022/01/19 07:22:16;;;;;;;130.43;43.67;;;3.90;99.90;;;;;;5037967;28;20056;-70
2022/01/19 07:24:43;;;;;;;117.45;43.50;;;3.80;99.90;;;;;;5055979;28;20472;-70
2022/01/19 07:27:08;;;;;;;134.88;46.80;;;3.90;99.90;;;;;;5056351;28;20365;-70
2022/01/19 07:29:34;;;;;;;122.53;45.03;;;3.80;99.90;;;;;;5055932;28;20025;-70
2022/01/19 07:32:00;;;;;;;126.15;45.10;;;3.90;99.90;;;;;;5055908;28;20036;-70
2022/01/19 07:34:25;;;;;;;133.48;43.80;;;3.80;99.90;;;;;;5055572;28;20021;-70
2022/01/19 07:36:55;;;;;;;152.82;46.45;;;3.80;99.90;;;;;;5055589;28;20032;-70
2022/01/19 07:39:22;;;;;;;125.63;42.78;;;3.80;99.90;;;;;;5055402;28;20381;-70
2022/01/19 07:41:48;;;;;;;142.55;46.28;;;3.90;99.90;;;;;;5056292;28;20330;-69
2022/01/19 07:44:14;;;;;;;133.23;47.13;;;3.90;99.90;;;;;;5112508;22;20057;-67
2022/01/19 07:46:40;;;;;;;141.63;47.17;;;3.90;99.90;;;;;;5035291;28;20048;-67
2022/01/19 07:49:06;;;;;;;139.25;44.85;;;3.90;99.90;;;;;;5035536;28;20065;-66
2022/01/19 07:51:32;;;;;;;147.63;44.40;;;3.90;99.90;;;;;;5036185;28;20095;-66
2022/01/19 07:53:57;;;;;;;161.18;49.65;;;3.90;99.90;;;;;;5035360;28;20441;-68
2022/01/19 07:56:23;;;;;;;174.25;50.20;;;3.90;99.90;;;;;;5035220;28;20485;-68
2022/01/19 07:58:49;;;;;;;144.75;48.78;;;3.80;99.90;;;;;;5035189;28;20485;-68
2022/01/19 08:01:14;;;;;;;134.07;45.45;;;3.90;99.90;;;;;;5035760;28;20449;-67
2022/01/19 08:03:40;;;;;;;121.47;46.38;;;3.90;99.90;;;;;;5035148;28;20017;-66
2022/01/19 08:06:06;;;;;;;114.07;44.97;;;3.90;99.90;;;;;;5035027;28;20075;-66
2022/01/19 08:08:32;;;;;;;111.13;42.13;;;3.90;99.90;;;;;;5035064;28;20026;-66
2022/01/19 08:10:57;;;;;;;118.40;41.45;;;3.90;99.90;;;;;;5035326;28;20078;-66
2022/01/19 08:13:23;;;;;;;118.05;43.40;;;3.90;99.90;;;;;;5034953;28;20057;-67
2022/01/19 08:15:49;;;;;;;121.30;43.22;;;3.90;99.90;;;;;;5034857;28;20037;-68
2022/01/19 08:18:15;;;;;;;131.13;44.33;;;3.90;99.90;;;;;;5035167;28;20025;-68
2022/01/19 08:20:43;;;;;;;125.55;45.53;;;4.00;99.90;;;;;;5034741;28;20033;-68
2022/01/19 08:23:09;;;;;;;125.03;44.95;;;3.90;99.90;;;;;;5035009;28;20037;-68
2022/01/19 08:25:35;;;;;;;136.48;45.60;;;4.00;99.90;;;;;;5034687;28;20488;-68
2022/01/19 08:28:00;;;;;;;135.32;46.95;;;4.00;99.90;;;;;;5034098;28;20029;-68
2022/01/19 08:30:26;;;;;;;137.88;49.80;;;4.00;99.90;;;;;;5034621;28;20397;-68
2022/01/19 08:32:51;;;;;;;140.23;51.33;;;4.00;99.90;;;;;;5034646;28;20445;-67
2022/01/19 08:35:17;;;;;;;125.38;47.63;;;4.00;99.90;;;;;;5034487;28;20534;-66
2022/01/19 08:37:43;;;;;;;124.85;47.75;;;4.00;99.90;;;;;;5034510;28;20032;-66
2022/01/19 08:40:10;;;;;;;123.68;49.88;;;4.00;99.90;;;;;;5034626;28;20036;-66
2022/01/19 08:42:36;;;;;;;128.13;45.33;;;4.00;99.90;;;;;;5034969;28;20079;-66
2022/01/19 08:45:07;;;;;;;128.70;50.58;;;4.00;99.90;;;;;;5034219;28;20040;-67
2022/01/19 08:47:34;;;;;;;116.03;46.22;;;4.10;99.90;;;;;;5034544;28;20470;-67
2022/01/19 08:49:59;;;;;;;125.57;48.28;;;4.10;99.90;;;;;;5034256;28;20098;-68
2022/01/19 08:52:25;;;;;;;132.60;51.00;;;4.10;99.90;;;;;;5034473;28;20025;-68
2022/01/19 08:54:50;;;;;;;141.05;50.95;;;4.10;99.90;;;;;;5034899;28;20041;-68
2022/01/19 08:57:17;;;;;;;132.48;45.53;;;4.10;99.90;;;;;;5034519;28;20022;-68
2022/01/19 08:59:43;;;;;;;120.72;47.67;;;4.20;99.90;;;;;;5034589;28;20029;-68
2022/01/19 09:02:09;;;;;;;134.73;46.60;;;4.20;99.90;;;;;;5034060;28;20035;-68
2022/01/19 09:04:35;;;;;;;114.20;44.80;;;4.20;99.90;;;;;;5033939;28;20021;-68
2022/01/19 09:07:01;;;;;;;141.38;43.70;;;4.30;99.90;;;;;;5034223;28;20381;-68
2022/01/19 09:09:27;;;;;;;133.35;41.05;;;4.30;99.90;;;;;;5033930;28;20060;-68
2022/01/19 09:11:52;;;;;;;125.50;38.67;;;4.40;99.90;;;;;;5033866;28;20033;-68
2022/01/19 09:14:18;;;;;;;97.75;34.33;;;4.30;99.90;;;;;;5033753;28;20461;-67
2022/01/19 09:16:45;;;;;;;90.05;33.90;;;4.30;99.90;;;;;;5033767;28;20476;-67
2022/01/19 09:19:12;;;;;;;90.43;30.70;;;4.40;99.90;;;;;;5033712;28;20036;-67
2022/01/19 09:21:38;;;;;;;91.32;32.83;;;4.40;99.90;;;;;;5033679;28;20036;-67
2022/01/19 09:24:04;;;;;;;93.57;31.95;;;4.40;99.90;;;;;;5033650;28;20104;-67
2022/01/19 09:26:30;;;;;;;110.43;35.00;;;4.50;99.90;;;;;;5033597;28;20120;-67
2022/01/19 09:28:56;;;;;;;105.72;37.13;;;4.40;99.90;;;;;;5033916;28;20053;-68
2022/01/19 09:31:21;;;;;;;111.72;39.22;;;4.50;99.90;;;;;;5033869;28;20030;-68
2022/01/19 09:33:55;;;;;;;118.85;40.25;;;4.50;99.90;;;;;;5033744;28;20084;-68
2022/01/19 09:36:32;;;;;;;96.57;38.05;;;4.50;99.90;;;;;;5033751;28;20030;-68
2022/01/19 09:38:58;;;;;;;96.25;35.13;;;4.50;99.90;;;;;;5032824;28;20035;-68
2022/01/19 09:41:24;;;;;;;108.70;37.65;;;4.60;99.90;;;;;;5033492;28;20101;-68
2022/01/19 09:43:50;;;;;;;111.53;36.17;;;4.60;99.90;;;;;;5033403;28;20022;-68
2022/01/19 09:46:15;;;;;;;118.75;39.45;;;4.60;99.90;;;;;;5033314;28;20542;-68
2022/01/19 09:48:41;;;;;;;115.45;43.25;;;4.60;99.90;;;;;;5033432;28;20420;-69
2022/01/19 09:51:07;;;;;;;100.40;43.05;;;4.70;99.90;;;;;;5033387;28;20524;-68
2022/01/19 09:53:33;;;;;;;102.40;43.42;;;4.70;99.90;;;;;;5033872;28;20025;-67
2022/01/19 09:55:59;;;;;;;104.32;47.38;;;4.80;99.90;;;;;;5033339;28;20017;-67
2022/01/19 09:58:24;;;;;;;110.55;48.85;;;4.80;99.90;;;;;;5033331;28;20026;-68
2022/01/19 10:00:51;;;;;;;138.82;56.20;;;4.80;99.90;;;;;;5033194;28;20030;-68
2022/01/19 10:03:28;;;;;;;115.32;47.00;;;4.80;99.90;;;;;;5033250;28;20025;-68
2022/01/19 10:06:06;;;;;;;110.85;44.92;;;4.90;99.90;;;;;;5033155;28;20026;-67
2022/01/19 10:08:46;;;;;;;104.45;42.40;;;4.90;99.90;;;;;;5033487;28;20028;-67
2022/01/19 10:11:18;;;;;;;98.95;37.03;;;5.00;99.90;;;;;;5033228;28;20044;-67
2022/01/19 10:16:59;;;;;;;107.78;35.28;;;5.00;99.90;;;;;;5010054;28;20436;-67
2022/01/19 10:19:42;;;;;;;106.97;30.83;;;5.10;99.90;;;;;;5033263;28;20030;-67
2022/01/19 10:22:23;;;;;;;87.43;31.13;;;5.20;99.90;;;;;;5033348;28;20022;-66
2022/01/19 10:24:51;;;;;;;98.00;36.03;;;5.20;99.90;;;;;;5033064;28;20032;-68
2022/01/19 10:27:17;;;;;;;102.25;39.10;;;5.20;99.90;;;;;;5033089;28;20599;-67
2022/01/19 10:29:44;;;;;;;94.68;38.22;;;5.30;99.90;;;;;;5033251;28;20393;-67
2022/01/19 10:32:10;;;;;;;131.90;41.50;;;5.30;99.90;;;;;;5032991;28;20036;-66
2022/01/19 10:34:35;;;;;;;122.18;41.92;;;5.30;99.90;;;;;;5033134;28;20030;-66
2022/01/19 10:37:02;;;;;;;107.57;40.28;;;5.20;99.90;;;;;;5033031;28;20040;-68
2022/01/19 10:39:52;;;;;;;101.93;40.63;;;5.20;99.90;;;;;;5032849;28;20021;-68
2022/01/19 10:42:20;;;;;;;129.65;40.92;;;5.20;99.90;;;;;;5033239;28;20017;-68
2022/01/19 10:44:56;;;;;;;108.25;37.35;;;5.20;99.90;;;;;;5032586;28;20030;-68
2022/01/19 10:47:45;;;;;;;119.70;38.97;;;5.20;99.90;;;;;;5033146;28;20028;-68
2022/01/19 10:50:14;;;;;;;108.55;38.45;;;5.20;99.90;;;;;;5034465;28;20485;-68
2022/01/19 10:52:42;;;;;;;115.40;39.47;;;5.20;99.90;;;;;;5036777;28;20052;-68
2022/01/19 10:55:12;;;;;;;126.82;41.75;;;5.20;99.90;;;;;;5036648;28;20048;-68
2022/01/19 10:57:41;;;;;;;109.20;38.63;;;5.10;99.90;;;;;;5036420;28;20026;-68
2022/01/19 11:00:36;;;;;;;107.30;37.92;;;5.10;99.90;;;;;;5036566;28;20028;-68
2022/01/19 11:03:15;;;;;;;109.15;35.58;;;5.10;99.90;;;;;;5019574;28;20477;-68
2022/01/19 11:05:59;;;;;;;96.25;38.60;;;5.10;99.90;;;;;;5036492;28;20131;-68
2022/01/19 11:08:26;;;;;;;99.95;34.67;;;5.10;99.90;;;;;;5036502;28;20037;-66
2022/01/19 11:10:55;;;;;;;84.18;34.28;;;5.10;99.90;;;;;;5036423;28;20030;-66
2022/01/19 11:13:31;;;;;;;106.15;36.58;;;5.10;99.90;;;;;;5036123;28;20033;-66
2022/01/19 11:15:59;;;;;;;100.32;32.75;;;5.00;99.90;;;;;;5036082;28;20113;-66
2022/01/19 11:18:29;;;;;;;104.32;36.53;;;5.10;99.90;;;;;;5036031;28;20493;-66
2022/01/19 11:20:57;;;;;;;88.45;34.22;;;5.10;99.90;;;;;;5036281;28;20021;-67
2022/01/19 11:23:41;;;;;;;109.65;36.60;;;5.10;99.90;;;;;;5036228;28;20021;-66
2022/01/19 11:26:12;;;;;;;110.20;35.85;;;5.10;99.90;;;;;;5036228;28;20029;-66
2022/01/19 11:28:44;;;;;;;98.57;36.08;;;5.10;99.90;;;;;;5036196;28;20021;-67
2022/01/19 11:31:23;;;;;;;99.13;34.28;;;5.10;99.90;;;;;;5036187;28;20053;-68
2022/01/19 11:33:56;;;;;;;101.10;37.17;;;5.10;99.90;;;;;;5036327;28;20209;-68
2022/01/19 11:36:34;;;;;;;110.22;38.00;;;5.00;99.90;;;;;;5035934;28;20032;-68
2022/01/19 11:39:22;;;;;;;106.93;38.30;;;5.00;99.90;;;;;;5036476;28;20037;-66
2022/01/19 11:41:54;;;;;;;104.45;39.20;;;5.00;99.90;;;;;;5035503;28;20086;-66
2022/01/19 11:44:32;;;;;;;118.25;37.85;;;5.00;99.90;;;;;;5035444;28;20056;-66
2022/01/19 11:47:16;;;;;;;121.47;40.75;;;4.90;99.90;;;;;;5035669;28;20028;-66
2022/01/19 11:49:54;;;;;;;125.75;43.03;;;4.90;99.90;;;;;;5035451;28;20105;-66
2022/01/19 11:52:24;;;;;;;131.05;40.33;;;4.90;99.90;;;;;;5035663;28;20030;-66
2022/01/19 11:54:51;;;;;;;133.70;42.65;;;4.80;99.90;;;;;;5035470;28;20030;-66
2022/01/19 11:57:27;;;;;;;134.07;44.30;;;4.90;99.90;;;;;;5035577;28;20066;-66
2022/01/19 11:59:53;;;;;;;127.97;42.95;;;4.90;99.90;;;;;;5035191;28;20409;-66
2022/01/19 12:02:24;;;;;;;140.20;43.13;;;4.90;99.90;;;;;;5034194;28;20041;-66
2022/01/19 12:04:54;;;;;;;117.32;43.40;;;4.90;99.90;;;;;;5035223;28;20026;-66
2022/01/19 12:07:39;;;;;;;130.25;43.55;;;4.90;99.90;;;;;;5035392;28;20097;-66
2022/01/19 12:10:13;;;;;;;132.20;44.63;;;4.90;99.90;;;;;;5035060;28;20041;-67
2022/01/19 12:12:54;;;;;;;137.02;46.63;;;5.00;99.90;;;;;;5034871;28;20397;-68
2022/01/19 12:15:56;;;;;;;142.00;44.53;;;4.90;99.90;;;;;;5034945;28;20029;-68
2022/01/19 12:18:49;;;;;;;135.93;46.08;;;4.90;99.90;;;;;;5035205;28;20025;-66
2022/01/19 12:21:31;;;;;;;162.40;48.20;;;4.90;99.90;;;;;;5034876;28;20072;-66
2022/01/19 12:24:21;;;;;;;127.93;43.10;;;4.90;99.90;;;;;;5035584;28;20036;-66
2022/01/19 12:26:55;;;;;;;133.02;47.53;;;4.90;99.90;;;;;;5035025;28;20030;-68
2022/01/19 12:29:33;;;;;;;139.55;45.03;;;4.90;99.90;;;;;;5034682;28;20025;-68
2022/01/19 12:32:00;;;;;;;144.25;45.63;;;4.90;99.90;;;;;;5034633;28;20026;-68
2022/01/19 12:34:26;;;;;;;141.15;45.85;;;4.90;99.90;;;;;;5034509;28;20056;-68
2022/01/19 12:36:58;;;;;;;140.07;45.63;;;4.90;99.90;;;;;;5034481;28;20412;-67
2022/01/19 12:39:26;;;;;;;142.73;49.10;;;4.90;99.90;;;;;;5034394;28;20544;-68
2022/01/19 12:42:14;;;;;;;151.38;44.88;;;5.00;99.90;;;;;;5034696;28;20105;-68
2022/01/19 12:44:46;;;;;;;141.45;46.28;;;5.00;99.90;;;;;;5034448;28;20056;-68
2022/01/19 12:47:24;;;;;;;131.98;43.60;;;5.00;99.90;;;;;;5034316;28;20026;-68
2022/01/19 12:50:08;;;;;;;117.45;44.33;;;5.00;99.90;;;;;;5034278;28;20501;-68
2022/01/19 12:52:40;;;;;;;133.23;45.90;;;5.00;99.90;;;;;;5034511;28;20462;-68
2022/01/19 12:55:20;;;;;;;126.35;44.92;;;5.00;99.90;;;;;;5034289;28;20028;-68
2022/01/19 12:57:48;;;;;;;130.07;45.65;;;5.10;99.90;;;;;;5034468;28;20498;-68
2022/01/19 13:00:17;;;;;;;138.57;46.97;;;5.10;99.90;;;;;;5033981;28;20026;-67
2022/01/19 13:02:42;;;;;;;125.68;44.92;;;5.10;99.90;;;;;;5034602;28;20430;-67
2022/01/19 13:05:13;;;;;;;112.18;43.70;;;5.10;99.90;;;;;;5034026;28;20053;-67
2022/01/19 13:07:42;;;;;;;128.93;46.45;;;5.10;99.90;;;;;;5034237;28;20030;-68
2022/01/19 13:10:20;;;;;;;136.70;45.55;;;5.10;99.90;;;;;;5033906;28;20025;-66
2022/01/19 13:15:39;;;;;;;120.47;44.83;;;5.10;99.90;;;;;;5034047;28;20030;-66
2022/01/19 13:18:05;;;;;;;148.07;45.90;;;5.00;99.90;;;;;;5033796;28;20056;-66
2022/01/19 13:20:31;;;;;;;150.07;48.25;;;5.00;99.90;;;;;;5033728;28;20094;-66
2022/01/19 13:22:58;;;;;;;133.93;48.60;;;5.00;99.90;;;;;;5033861;28;20040;-67
2022/01/19 13:25:33;;;;;;;143.13;48.90;;;5.00;99.90;;;;;;5033662;28;20021;-67
2022/01/19 13:28:01;;;;;;;152.77;49.90;;;5.00;99.90;;;;;;5033733;28;20389;-67
2022/01/19 13:30:30;;;;;;;144.23;48.95;;;4.90;99.90;;;;;;5033907;28;20036;-67
2022/01/19 13:32:56;;;;;;;140.55;47.85;;;4.90;99.90;;;;;;5033545;28;20099;-68
2022/01/19 13:35:24;;;;;;;143.75;50.05;;;4.90;99.90;;;;;;5033764;28;20029;-68
2022/01/19 13:37:55;;;;;;;170.50;50.05;;;4.90;99.90;;;;;;5033835;28;20052;-68
2022/01/19 13:40:22;;;;;;;152.30;51.28;;;4.80;99.90;;;;;;5033739;28;20025;-68
2022/01/19 13:42:56;;;;;;;147.88;50.03;;;4.90;99.90;;;;;;5033475;28;20473;-68
2022/01/19 13:46:13;;;;;;;171.75;51.63;;;4.90;99.90;;;;;;5074006;22;20049;-71
2022/01/19 13:50:43;;;;;;;171.30;51.53;;;4.90;99.90;;;;;;5033643;28;20045;-71
2022/01/19 13:53:10;;;;;;;161.57;49.85;;;4.90;99.90;;;;;;5033317;28;20033;-71
2022/01/19 13:55:37;;;;;;;142.35;49.42;;;4.90;99.90;;;;;;5033291;28;20025;-71
2022/01/19 13:58:12;;;;;;;153.55;47.97;;;4.90;99.90;;;;;;5033581;28;20033;-71
2022/01/19 14:00:52;;;;;;;154.98;47.38;;;4.90;99.90;;;;;;5033556;28;20021;-71